createdAt,value
2019-01-29T00:00:54.633Z,11.53
2019-01-29T00:02:03.410Z,11.37
2019-01-29T00:03:11.274Z,11.03
2019-01-29T00:04:19.365Z,10.43
2019-01-29T00:05:27.132Z,8.20
2019-01-29T00:06:35.178Z,9.10
2019-01-29T00:07:42.681Z,11.07
2019-01-29T00:08:50.549Z,9.67
2019-01-29T00:09:58.614Z,10.90
2019-01-29T00:11:06.586Z,10.70
2019-01-29T00:12:14.513Z,9.30
2019-01-29T00:13:22.230Z,11.23
2019-01-29T00:14:30.239Z,13.93
2019-01-29T00:15:38.787Z,9.13
2019-01-29T00:16:46.446Z,10.77
2019-01-29T00:17:55.258Z,7.63
2019-01-29T00:19:03.482Z,10.90
2019-01-29T00:20:11.498Z,9.53
2019-01-29T00:21:19.545Z,10.73
2019-01-29T00:22:33.296Z,12.07
2019-01-29T00:23:37.272Z,10.33
2019-01-29T00:24:46.425Z,12.93
2019-01-29T00:25:54.386Z,11.67
2019-01-29T00:27:02.832Z,11.43
2019-01-29T00:28:10.919Z,12.10
2019-01-29T00:29:18.797Z,11.27
2019-01-29T00:30:26.958Z,8.70
2019-01-29T00:31:35.282Z,9.20
2019-01-29T00:32:43.042Z,10.00
2019-01-29T00:33:51.777Z,8.37
2019-01-29T00:34:59.522Z,11.80
2019-01-29T00:36:07.687Z,9.07
2019-01-29T00:37:16.118Z,11.23
2019-01-29T00:38:24.887Z,11.93
2019-01-29T00:39:33.818Z,9.43
2019-01-29T00:40:42.148Z,9.40
2019-01-29T00:41:50.293Z,12.37
2019-01-29T00:42:58.420Z,11.17
2019-01-29T00:44:08.041Z,13.83
2019-01-29T00:45:18.428Z,11.53
2019-01-29T00:46:26.298Z,13.70
2019-01-29T00:47:34.287Z,12.83
2019-01-29T00:48:42.215Z,12.17
2019-01-29T00:49:50.120Z,11.37
2019-01-29T00:50:58.321Z,6.83
2019-01-29T00:52:06.067Z,9.17
2019-01-29T00:53:13.802Z,11.30
2019-01-29T00:54:22.054Z,11.70
2019-01-29T00:55:29.657Z,11.00
2019-01-29T00:56:37.306Z,11.37
2019-01-29T00:57:45.207Z,13.53
2019-01-29T00:58:53.000Z,11.63
2019-01-29T01:00:01.063Z,8.43
2019-01-29T01:01:08.729Z,9.87
2019-01-29T01:02:16.581Z,12.53
2019-01-29T01:03:24.905Z,14.90
2019-01-29T01:04:33.147Z,11.77
2019-01-29T01:05:40.886Z,11.90
2019-01-29T01:06:48.790Z,12.53
2019-01-29T01:07:57.288Z,10.63
2019-01-29T01:09:07.250Z,9.57
2019-01-29T01:10:18.266Z,13.30
2019-01-29T01:11:26.099Z,9.20
2019-01-29T01:12:33.869Z,11.77
2019-01-29T01:13:42.031Z,11.33
2019-01-29T01:14:50.003Z,11.00
2019-01-29T01:15:58.249Z,10.03
2019-01-29T01:17:06.403Z,9.83
2019-01-29T01:18:14.360Z,10.30
2019-01-29T01:19:22.121Z,10.73
2019-01-29T01:20:30.941Z,10.40
2019-01-29T01:21:38.471Z,11.53
2019-01-29T01:22:51.318Z,9.70
2019-01-29T01:23:56.176Z,13.13
2019-01-29T01:25:05.154Z,13.90
2019-01-29T01:26:12.974Z,11.13
2019-01-29T01:27:21.234Z,12.17
2019-01-29T01:28:29.155Z,14.23
2019-01-29T01:29:37.261Z,12.63
2019-01-29T01:30:45.339Z,12.97
2019-01-29T01:31:52.925Z,11.63
2019-01-29T01:33:01.425Z,12.47
2019-01-29T01:34:09.804Z,10.27
2019-01-29T01:35:17.647Z,11.93
2019-01-29T01:36:26.639Z,12.87
2019-01-29T01:37:34.797Z,10.40
2019-01-29T01:38:42.945Z,11.80
2019-01-29T01:39:51.115Z,12.30
2019-01-29T01:40:59.016Z,11.23
2019-01-29T01:42:06.942Z,10.97
2019-01-29T01:43:15.331Z,11.83
2019-01-29T01:44:23.529Z,10.83
2019-01-29T01:45:31.530Z,13.13
2019-01-29T01:46:39.406Z,13.43
2019-01-29T01:47:47.204Z,12.73
2019-01-29T01:48:55.011Z,10.87
2019-01-29T01:50:03.529Z,9.07
2019-01-29T01:51:11.255Z,12.57
2019-01-29T01:52:19.286Z,12.10
2019-01-29T01:53:27.407Z,10.83
2019-01-29T01:54:35.741Z,8.83
2019-01-29T01:55:43.937Z,9.20
2019-01-29T01:56:52.088Z,12.07
2019-01-29T01:58:00.196Z,10.23
2019-01-29T01:59:09.632Z,10.07
2019-01-29T02:00:22.629Z,7.83
2019-01-29T02:01:30.499Z,7.60
2019-01-29T02:02:38.381Z,7.10
2019-01-29T02:03:46.219Z,10.50
2019-01-29T02:04:54.328Z,10.37
2019-01-29T02:06:02.148Z,11.53
2019-01-29T02:07:10.021Z,9.73
2019-01-29T02:08:18.135Z,8.30
2019-01-29T02:09:26.272Z,10.47
2019-01-29T02:10:34.175Z,10.43
2019-01-29T02:11:42.574Z,12.00
2019-01-29T02:12:50.563Z,11.07
2019-01-29T02:13:58.631Z,11.07
2019-01-29T02:15:09.751Z,11.47
2019-01-29T02:16:17.520Z,10.87
2019-01-29T02:17:25.384Z,9.67
2019-01-29T02:18:33.942Z,11.37
2019-01-29T02:19:42.497Z,12.53
2019-01-29T02:20:50.422Z,12.33
2019-01-29T02:21:58.477Z,12.10
2019-01-29T02:23:08.008Z,10.73
2019-01-29T02:24:15.936Z,11.70
2019-01-29T02:25:24.106Z,12.63
2019-01-29T02:26:32.024Z,10.90
2019-01-29T02:27:39.771Z,11.30
2019-01-29T02:28:47.475Z,12.03
2019-01-29T02:29:55.504Z,11.93
2019-01-29T02:31:03.693Z,11.57
2019-01-29T02:32:12.024Z,13.93
2019-01-29T02:33:19.719Z,12.27
2019-01-29T02:34:27.576Z,11.03
2019-01-29T02:35:35.774Z,12.17
2019-01-29T02:36:43.627Z,12.97
2019-01-29T02:37:51.966Z,12.33
2019-01-29T02:38:59.812Z,10.63
2019-01-29T02:40:11.913Z,14.23
2019-01-29T02:41:19.762Z,10.63
2019-01-29T02:42:27.930Z,7.93
2019-01-29T02:43:36.050Z,11.07
2019-01-29T02:44:43.727Z,10.10
2019-01-29T02:45:51.552Z,11.57
2019-01-29T02:46:59.815Z,9.43
2019-01-29T02:48:07.779Z,12.77
2019-01-29T02:49:15.581Z,10.93
2019-01-29T02:50:23.598Z,13.77
2019-01-29T02:51:31.483Z,11.43
2019-01-29T02:52:39.211Z,13.27
2019-01-29T02:53:46.974Z,12.93
2019-01-29T02:54:54.704Z,11.20
2019-01-29T02:56:02.648Z,11.53
2019-01-29T02:57:10.328Z,12.17
2019-01-29T02:58:18.361Z,12.30
2019-01-29T02:59:26.114Z,13.37
2019-01-29T03:00:34.318Z,13.90
2019-01-29T03:01:42.085Z,11.13
2019-01-29T03:02:50.230Z,14.53
2019-01-29T03:03:58.095Z,12.90
2019-01-29T03:05:10.240Z,12.67
2019-01-29T03:06:18.385Z,15.87
2019-01-29T03:07:26.581Z,14.10
2019-01-29T03:08:35.192Z,12.30
2019-01-29T03:09:43.764Z,11.20
2019-01-29T03:10:54.077Z,13.03
2019-01-29T03:12:02.407Z,11.23
2019-01-29T03:13:10.482Z,11.10
2019-01-29T03:14:18.457Z,12.63
2019-01-29T03:15:32.224Z,12.60
2019-01-29T03:16:40.063Z,11.00
2019-01-29T03:17:48.058Z,14.17
2019-01-29T03:18:56.217Z,14.13
2019-01-29T03:20:05.647Z,13.73
2019-01-29T03:21:13.746Z,12.93
2019-01-29T03:22:22.085Z,12.20
2019-01-29T03:23:31.237Z,12.93
2019-01-29T03:24:39.291Z,14.17
2019-01-29T03:25:47.135Z,13.13
2019-01-29T03:26:54.944Z,10.67
2019-01-29T03:28:03.337Z,12.33
2019-01-29T03:29:11.380Z,12.67
2019-01-29T03:30:21.468Z,11.50
2019-01-29T03:31:29.301Z,14.77
2019-01-29T03:32:37.304Z,14.50
2019-01-29T03:33:45.458Z,12.17
2019-01-29T03:34:53.299Z,12.63
2019-01-29T03:36:01.796Z,9.83
2019-01-29T03:37:09.574Z,12.83
2019-01-29T03:38:17.103Z,12.47
2019-01-29T03:39:25.182Z,12.50
2019-01-29T03:40:35.378Z,12.33
2019-01-29T03:41:43.429Z,12.57
2019-01-29T03:42:51.565Z,11.77
2019-01-29T03:43:59.722Z,11.60
2019-01-29T03:45:11.816Z,12.80
2019-01-29T03:46:19.790Z,9.77
2019-01-29T03:47:28.056Z,11.77
2019-01-29T03:48:35.905Z,10.80
2019-01-29T03:49:43.534Z,11.70
2019-01-29T03:50:51.577Z,10.67
2019-01-29T03:52:00.031Z,8.90
2019-01-29T03:53:08.030Z,11.23
2019-01-29T03:54:15.896Z,8.70
2019-01-29T03:55:23.758Z,8.63
2019-01-29T03:56:32.257Z,8.43
2019-01-29T03:57:40.830Z,12.00
2019-01-29T03:58:48.570Z,9.97
2019-01-29T03:59:56.518Z,8.23
2019-01-29T04:01:04.372Z,9.73
2019-01-29T04:02:12.158Z,8.20
2019-01-29T04:03:20.567Z,9.43
2019-01-29T04:04:28.696Z,9.23
2019-01-29T04:05:36.553Z,9.27
2019-01-29T04:06:45.222Z,7.47
2019-01-29T04:07:53.393Z,5.90
2019-01-29T04:09:01.605Z,8.13
2019-01-29T04:10:15.726Z,7.10
2019-01-29T04:11:22.915Z,7.70
2019-01-29T04:12:30.893Z,9.23
2019-01-29T04:13:38.694Z,6.60
2019-01-29T04:14:46.527Z,7.27
2019-01-29T04:15:54.391Z,7.13
2019-01-29T04:17:02.611Z,5.30
2019-01-29T04:18:10.443Z,7.23
2019-01-29T04:19:18.664Z,7.07
2019-01-29T04:20:26.594Z,6.37
2019-01-29T04:21:34.316Z,4.53
2019-01-29T04:22:42.086Z,7.03
2019-01-29T04:23:49.904Z,6.53
2019-01-29T04:24:57.618Z,8.67
2019-01-29T04:26:05.386Z,6.50
2019-01-29T04:27:13.689Z,6.27
2019-01-29T04:28:21.921Z,7.10
2019-01-29T04:29:29.952Z,6.67
2019-01-29T04:30:38.023Z,7.37
2019-01-29T04:31:46.388Z,6.30
2019-01-29T04:32:54.538Z,8.60
2019-01-29T04:34:02.357Z,6.57
2019-01-29T04:35:10.318Z,7.87
2019-01-29T04:36:18.420Z,7.87
2019-01-29T04:37:26.190Z,6.47
2019-01-29T04:38:33.862Z,6.13
2019-01-29T04:39:41.631Z,6.90
2019-01-29T04:40:49.090Z,7.17
2019-01-29T04:41:57.162Z,6.47
2019-01-29T04:43:05.257Z,8.17
2019-01-29T04:44:13.587Z,6.57
2019-01-29T04:45:21.538Z,5.93
2019-01-29T04:46:29.557Z,7.40
2019-01-29T04:47:37.750Z,8.43
2019-01-29T04:48:46.383Z,6.20
2019-01-29T04:49:54.267Z,8.57
2019-01-29T04:51:02.186Z,8.43
2019-01-29T04:52:10.035Z,8.33
2019-01-29T04:53:17.967Z,8.50
2019-01-29T04:54:26.040Z,8.43
2019-01-29T04:55:34.386Z,7.47
2019-01-29T04:56:42.868Z,8.30
2019-01-29T04:57:50.886Z,6.57
2019-01-29T04:58:59.178Z,9.57
2019-01-29T05:00:14.413Z,8.50
2019-01-29T05:01:22.022Z,7.27
2019-01-29T05:02:29.862Z,5.77
2019-01-29T05:03:37.987Z,5.77
2019-01-29T05:04:46.155Z,5.17
2019-01-29T05:05:54.153Z,7.63
2019-01-29T05:07:02.123Z,8.43
2019-01-29T05:08:10.414Z,7.07
2019-01-29T05:09:18.463Z,7.77
2019-01-29T05:10:26.852Z,7.17
2019-01-29T05:11:35.206Z,6.70
2019-01-29T05:12:43.221Z,8.37
2019-01-29T05:13:51.035Z,8.30
2019-01-29T05:14:58.742Z,5.87
2019-01-29T05:16:06.821Z,7.43
2019-01-29T05:17:14.721Z,7.60
2019-01-29T05:18:23.040Z,6.63
2019-01-29T05:19:30.880Z,6.23
2019-01-29T05:20:38.717Z,5.60
2019-01-29T05:21:46.989Z,6.83
2019-01-29T05:22:54.986Z,5.43
2019-01-29T05:24:06.790Z,7.23
2019-01-29T05:25:12.741Z,6.43
2019-01-29T05:26:20.945Z,8.60
2019-01-29T05:27:28.826Z,5.83
2019-01-29T05:28:36.830Z,8.33
2019-01-29T05:29:44.818Z,7.37
2019-01-29T05:30:53.010Z,6.30
2019-01-29T05:32:01.508Z,7.43
2019-01-29T05:33:09.722Z,6.07
2019-01-29T05:34:18.026Z,8.07
2019-01-29T05:35:25.964Z,6.67
2019-01-29T05:36:34.211Z,6.50
2019-01-29T05:37:42.281Z,7.83
2019-01-29T05:38:50.168Z,7.40
2019-01-29T05:39:58.305Z,6.00
2019-01-29T05:41:06.093Z,5.73
2019-01-29T05:42:14.127Z,7.07
2019-01-29T05:43:22.093Z,5.57
2019-01-29T05:44:30.043Z,5.03
2019-01-29T05:45:38.290Z,6.67
2019-01-29T05:46:46.326Z,5.97
2019-01-29T05:47:54.720Z,7.17
2019-01-29T05:49:02.872Z,5.13
2019-01-29T05:50:14.504Z,6.03
2019-01-29T05:51:22.548Z,6.60
2019-01-29T05:52:30.853Z,7.20
2019-01-29T05:53:38.977Z,5.60
2019-01-29T05:54:47.095Z,6.47
2019-01-29T05:55:55.241Z,6.30
2019-01-29T05:57:03.441Z,6.67
2019-01-29T05:58:11.749Z,5.63
2019-01-29T05:59:19.795Z,6.00
2019-01-29T06:00:30.810Z,6.80
2019-01-29T06:01:39.325Z,5.33
2019-01-29T06:02:48.618Z,6.33
2019-01-29T06:03:57.766Z,7.53
2019-01-29T06:05:09.638Z,7.87
2019-01-29T06:06:17.557Z,5.30
2019-01-29T06:07:25.428Z,5.77
2019-01-29T06:08:33.322Z,6.10
2019-01-29T06:09:41.557Z,6.87
2019-01-29T06:10:51.006Z,5.63
2019-01-29T06:11:59.077Z,7.00
2019-01-29T06:13:08.061Z,6.20
2019-01-29T06:14:16.069Z,5.40
2019-01-29T06:15:25.758Z,5.57
2019-01-29T06:16:34.296Z,8.17
2019-01-29T06:17:42.322Z,7.83
2019-01-29T06:18:51.421Z,8.17
2019-01-29T06:20:00.465Z,6.90
2019-01-29T06:21:08.610Z,6.03
2019-01-29T06:22:16.725Z,6.67
2019-01-29T06:23:24.870Z,7.07
2019-01-29T06:24:33.230Z,5.93
2019-01-29T06:25:41.433Z,5.80
2019-01-29T06:26:50.381Z,5.67
2019-01-29T06:27:59.195Z,5.73
2019-01-29T06:29:07.670Z,5.90
2019-01-29T06:30:24.929Z,4.80
2019-01-29T06:31:33.557Z,5.87
2019-01-29T06:32:42.923Z,6.53
2019-01-29T06:33:51.641Z,5.40
2019-01-29T06:35:00.333Z,7.50
2019-01-29T06:36:08.968Z,4.77
2019-01-29T06:37:16.932Z,6.37
2019-01-29T06:38:25.270Z,5.07
2019-01-29T06:39:33.685Z,6.63
2019-01-29T06:40:42.028Z,6.67
2019-01-29T06:41:50.350Z,6.23
2019-01-29T06:42:58.484Z,7.00
2019-01-29T06:44:06.869Z,6.10
2019-01-29T06:45:21.067Z,5.57
2019-01-29T06:46:29.451Z,5.87
2019-01-29T06:47:37.719Z,4.37
2019-01-29T06:48:46.408Z,5.87
2019-01-29T06:49:55.269Z,5.63
2019-01-29T06:51:03.667Z,7.30
2019-01-29T06:52:12.531Z,5.63
2019-01-29T06:53:20.732Z,7.00
2019-01-29T06:54:34.164Z,6.73
2019-01-29T06:55:39.282Z,5.13
2019-01-29T06:56:48.031Z,5.80
2019-01-29T06:57:56.473Z,5.20
2019-01-29T06:59:04.758Z,7.40
2019-01-29T07:00:19.835Z,6.67
2019-01-29T07:01:29.751Z,5.63
2019-01-29T07:02:38.321Z,6.27
2019-01-29T07:03:47.053Z,6.03
2019-01-29T07:04:55.469Z,7.20
2019-01-29T07:06:04.443Z,5.60
2019-01-29T07:07:12.701Z,6.37
2019-01-29T07:08:21.002Z,5.93
2019-01-29T07:09:29.083Z,6.43
2019-01-29T07:10:37.566Z,5.10
2019-01-29T07:11:45.960Z,4.93
2019-01-29T07:12:54.035Z,6.60
2019-01-29T07:14:02.702Z,5.93
2019-01-29T07:15:41.496Z,5.83
2019-01-29T07:16:55.436Z,5.57
2019-01-29T07:18:05.854Z,7.60
2019-01-29T07:19:15.711Z,6.77
2019-01-29T07:20:24.613Z,8.10
2019-01-29T07:21:33.159Z,6.53
2019-01-29T07:22:41.909Z,5.80
2019-01-29T07:23:50.067Z,5.87
2019-01-29T07:24:59.091Z,5.83
2019-01-29T07:26:07.678Z,5.17
2019-01-29T07:27:16.229Z,5.23
2019-01-29T07:28:24.647Z,4.83
2019-01-29T07:29:33.456Z,4.60
2019-01-29T07:30:41.622Z,5.07
2019-01-29T07:31:49.889Z,5.47
2019-01-29T07:32:59.049Z,4.73
2019-01-29T07:34:08.167Z,4.63
2019-01-29T07:35:16.056Z,5.10
2019-01-29T07:36:24.283Z,4.30
2019-01-29T07:37:32.632Z,5.90
2019-01-29T07:38:40.845Z,5.00
2019-01-29T07:39:49.027Z,4.57
2019-01-29T07:40:58.255Z,4.57
2019-01-29T07:42:06.489Z,5.83
2019-01-29T07:43:15.015Z,3.87
2019-01-29T07:44:23.472Z,4.60
2019-01-29T07:45:31.666Z,4.57
2019-01-29T07:46:39.659Z,5.63
2019-01-29T07:47:48.008Z,4.13
2019-01-29T07:48:56.171Z,4.83
2019-01-29T07:50:04.467Z,5.83
2019-01-29T07:51:13.003Z,5.03
2019-01-29T07:52:21.041Z,5.93
2019-01-29T07:53:28.963Z,3.87
2019-01-29T07:54:37.396Z,5.00
2019-01-29T07:55:45.627Z,5.17
2019-01-29T07:56:54.021Z,6.33
2019-01-29T07:58:02.512Z,5.17
2019-01-29T07:59:10.665Z,5.83
2019-01-29T08:00:19.535Z,6.73
2019-01-29T08:01:27.897Z,6.03
2019-01-29T08:02:36.696Z,5.77
2019-01-29T08:03:45.510Z,6.40
2019-01-29T08:04:53.874Z,7.03
2019-01-29T08:06:02.936Z,5.57
2019-01-29T08:07:11.095Z,6.90
2019-01-29T08:08:19.276Z,7.73
2019-01-29T08:09:27.701Z,7.43
2019-01-29T08:10:35.949Z,6.67
2019-01-29T08:11:44.821Z,7.07
2019-01-29T08:12:53.155Z,6.23
2019-01-29T08:14:01.836Z,6.37
2019-01-29T08:15:25.049Z,5.33
2019-01-29T08:16:34.236Z,6.17
2019-01-29T08:17:42.656Z,6.23
2019-01-29T08:18:51.368Z,5.83
2019-01-29T08:20:01.467Z,8.13
2019-01-29T08:21:10.271Z,6.90
2019-01-29T08:22:18.826Z,6.63
2019-01-29T08:23:27.261Z,5.70
2019-01-29T08:24:36.075Z,5.70
2019-01-29T08:25:47.866Z,6.63
2019-01-29T08:26:55.239Z,6.63
2019-01-29T08:28:03.507Z,6.10
2019-01-29T08:29:11.599Z,6.30
2019-01-29T08:30:21.024Z,7.40
2019-01-29T08:31:28.775Z,6.07
2019-01-29T08:32:37.151Z,6.97
2019-01-29T08:33:45.609Z,7.03
2019-01-29T08:34:54.899Z,6.83
2019-01-29T08:36:02.981Z,7.07
2019-01-29T08:37:10.736Z,6.87
2019-01-29T08:38:19.083Z,7.00
2019-01-29T08:39:27.068Z,7.57
2019-01-29T08:40:35.118Z,7.50
2019-01-29T08:41:43.640Z,7.67
2019-01-29T08:42:51.282Z,7.90
2019-01-29T08:44:00.252Z,7.10
2019-01-29T08:45:16.334Z,6.73
2019-01-29T08:46:24.553Z,8.73
2019-01-29T08:47:33.617Z,5.63
2019-01-29T08:48:42.092Z,7.50
2019-01-29T08:49:50.485Z,8.10
2019-01-29T08:50:59.065Z,6.60
2019-01-29T08:52:07.542Z,6.70
2019-01-29T08:53:15.645Z,7.27
2019-01-29T08:54:23.280Z,8.20
2019-01-29T08:55:31.490Z,8.30
2019-01-29T08:56:39.404Z,8.07
2019-01-29T08:57:47.498Z,10.63
2019-01-29T08:58:55.459Z,10.57
2019-01-29T09:00:03.967Z,10.20
2019-01-29T09:01:12.381Z,10.40
2019-01-29T09:02:20.572Z,12.20
2019-01-29T09:03:28.713Z,11.40
2019-01-29T09:04:37.660Z,11.30
2019-01-29T09:05:46.017Z,8.97
2019-01-29T09:06:54.229Z,9.60
2019-01-29T09:08:02.620Z,9.77
2019-01-29T09:09:11.069Z,10.83
2019-01-29T09:10:21.494Z,12.33
2019-01-29T09:11:29.456Z,11.60
2019-01-29T09:12:37.914Z,8.43
2019-01-29T09:13:45.727Z,11.13
2019-01-29T09:14:54.360Z,10.50
2019-01-29T09:16:03.080Z,10.33
2019-01-29T09:17:11.713Z,10.10
2019-01-29T09:18:21.460Z,9.60
2019-01-29T09:19:29.686Z,11.20
2019-01-29T09:20:38.688Z,10.33
2019-01-29T09:21:46.925Z,10.07
2019-01-29T09:22:54.882Z,9.47
2019-01-29T09:24:03.077Z,7.67
2019-01-29T09:25:19.585Z,8.50
2019-01-29T09:26:23.900Z,10.27
2019-01-29T09:27:32.407Z,8.63
2019-01-29T09:28:40.536Z,8.83
2019-01-29T09:29:48.678Z,11.70
2019-01-29T09:30:57.251Z,7.40
2019-01-29T09:32:06.075Z,9.73
2019-01-29T09:33:14.195Z,8.10
2019-01-29T09:34:22.492Z,8.30
2019-01-29T09:35:30.932Z,11.30
2019-01-29T09:36:38.632Z,9.43
2019-01-29T09:37:46.845Z,9.77
2019-01-29T09:38:54.726Z,9.23
2019-01-29T09:40:02.853Z,8.80
2019-01-29T09:41:10.996Z,9.53
2019-01-29T09:42:19.087Z,8.53
2019-01-29T09:43:27.467Z,8.70
2019-01-29T09:44:35.575Z,8.97
2019-01-29T09:45:44.494Z,6.90
2019-01-29T09:46:52.685Z,10.30
2019-01-29T09:48:00.987Z,9.33
2019-01-29T09:49:11.172Z,9.93
2019-01-29T09:50:22.376Z,9.87
2019-01-29T09:51:31.561Z,11.33
2019-01-29T09:52:40.240Z,8.73
2019-01-29T09:53:48.781Z,8.70
2019-01-29T09:54:56.989Z,8.57
2019-01-29T09:56:04.790Z,7.97
2019-01-29T09:57:13.265Z,9.57
2019-01-29T09:58:21.997Z,8.83
2019-01-29T09:59:30.615Z,9.93
2019-01-29T10:00:40.637Z,9.30
2019-01-29T10:01:48.941Z,8.43
2019-01-29T10:02:56.741Z,10.77
2019-01-29T10:04:04.908Z,10.17
2019-01-29T10:05:13.093Z,8.03
2019-01-29T10:06:22.524Z,9.27
2019-01-29T10:07:31.107Z,8.53
2019-01-29T10:08:39.988Z,8.80
2019-01-29T10:09:48.434Z,9.57
2019-01-29T10:10:59.639Z,8.80
2019-01-29T10:12:08.117Z,7.57
2019-01-29T10:13:16.001Z,7.60
2019-01-29T10:14:24.256Z,7.80
2019-01-29T10:15:36.271Z,8.90
2019-01-29T10:16:44.224Z,10.17
2019-01-29T10:17:52.142Z,8.13
2019-01-29T10:19:00.239Z,9.33
2019-01-29T10:20:09.658Z,8.27
2019-01-29T10:21:18.622Z,9.73
2019-01-29T10:22:27.080Z,7.67
2019-01-29T10:23:35.127Z,7.50
2019-01-29T10:24:44.328Z,8.20
2019-01-29T10:25:52.682Z,7.97
2019-01-29T10:27:01.002Z,7.37
2019-01-29T10:28:09.370Z,8.63
2019-01-29T10:29:17.486Z,6.77
2019-01-29T10:30:28.225Z,8.03
2019-01-29T10:31:39.165Z,7.57
2019-01-29T10:32:47.787Z,7.10
2019-01-29T10:33:56.406Z,6.53
2019-01-29T10:35:06.642Z,6.77
2019-01-29T10:36:15.033Z,6.87
2019-01-29T10:37:22.813Z,6.33
2019-01-29T10:38:31.467Z,7.13
2019-01-29T10:39:40.735Z,5.87
2019-01-29T10:40:49.158Z,5.73
2019-01-29T10:41:57.818Z,6.83
2019-01-29T10:43:07.458Z,6.50
2019-01-29T10:44:15.668Z,7.63
2019-01-29T10:45:26.822Z,6.60
2019-01-29T10:46:35.427Z,6.80
2019-01-29T10:47:44.677Z,5.40
2019-01-29T10:48:52.761Z,6.00
2019-01-29T10:50:01.284Z,4.37
2019-01-29T10:51:09.684Z,5.13
2019-01-29T10:52:18.862Z,6.90
2019-01-29T10:53:27.911Z,6.90
2019-01-29T10:54:36.396Z,6.83
2019-01-29T10:55:47.378Z,6.40
2019-01-29T10:56:55.012Z,6.13
2019-01-29T10:58:03.154Z,7.70
2019-01-29T10:59:11.146Z,7.03
2019-01-29T11:00:22.248Z,5.53
2019-01-29T11:01:30.750Z,6.03
2019-01-29T11:02:39.709Z,6.60
2019-01-29T11:03:48.952Z,6.40
2019-01-29T11:04:57.442Z,6.37
2019-01-29T11:06:05.396Z,6.53
2019-01-29T11:07:14.289Z,5.97
2019-01-29T11:08:22.858Z,6.80
2019-01-29T11:09:30.931Z,5.93
2019-01-29T11:10:38.803Z,6.13
2019-01-29T11:11:46.963Z,7.70
2019-01-29T11:12:55.505Z,6.97
2019-01-29T11:14:03.547Z,6.23
2019-01-29T11:15:16.145Z,5.87
2019-01-29T11:16:24.191Z,6.43
2019-01-29T11:17:32.846Z,5.57
2019-01-29T11:18:42.052Z,6.50
2019-01-29T11:19:50.439Z,6.83
2019-01-29T11:20:58.635Z,6.50
2019-01-29T11:22:07.091Z,6.03
2019-01-29T11:23:15.313Z,6.97
2019-01-29T11:24:23.981Z,4.53
2019-01-29T11:25:32.477Z,5.20
2019-01-29T11:26:40.831Z,5.73
2019-01-29T11:27:49.330Z,6.63
2019-01-29T11:28:57.763Z,5.40
2019-01-29T11:30:10.149Z,5.83
2019-01-29T11:31:18.956Z,6.37
2019-01-29T11:32:26.884Z,6.90
2019-01-29T11:33:34.975Z,6.60
2019-01-29T11:34:42.925Z,5.80
2019-01-29T11:35:51.670Z,5.33
2019-01-29T11:36:59.966Z,5.00
2019-01-29T11:38:08.165Z,5.83
2019-01-29T11:39:16.680Z,5.93
2019-01-29T11:40:33.415Z,4.80
2019-01-29T11:41:41.459Z,5.13
2019-01-29T11:42:49.735Z,5.33
2019-01-29T11:44:00.492Z,5.37
2019-01-29T11:45:24.760Z,6.57
2019-01-29T11:46:32.832Z,5.90
2019-01-29T11:47:41.320Z,6.70
2019-01-29T11:48:50.620Z,6.13
2019-01-29T11:49:58.936Z,5.30
2019-01-29T11:51:07.446Z,7.00
2019-01-29T11:52:15.765Z,5.67
2019-01-29T11:53:24.456Z,5.90
2019-01-29T11:54:33.079Z,6.60
2019-01-29T11:55:41.245Z,5.97
2019-01-29T11:56:50.496Z,6.20
2019-01-29T11:57:58.797Z,6.80
2019-01-29T11:59:07.232Z,7.20
2019-01-29T12:00:22.178Z,7.30
2019-01-29T12:01:30.263Z,6.93
2019-01-29T12:02:38.298Z,7.03
2019-01-29T12:03:46.752Z,7.77
2019-01-29T12:04:56.090Z,6.63
2019-01-29T12:06:03.958Z,6.73
2019-01-29T12:07:12.662Z,7.10
2019-01-29T12:08:21.088Z,7.33
2019-01-29T12:09:29.442Z,6.60
2019-01-29T12:10:38.299Z,5.57
2019-01-29T12:11:46.845Z,6.67
2019-01-29T12:12:55.065Z,8.20
2019-01-29T12:14:03.957Z,7.73
2019-01-29T12:15:19.017Z,8.33
2019-01-29T12:16:27.754Z,7.63
2019-01-29T12:17:35.995Z,6.30
2019-01-29T12:18:44.599Z,6.77
2019-01-29T12:19:52.701Z,6.70
2019-01-29T12:21:02.296Z,6.30
2019-01-29T12:22:10.862Z,7.17
2019-01-29T12:23:19.554Z,7.30
2019-01-29T12:24:28.221Z,8.23
2019-01-29T12:25:36.120Z,7.53
2019-01-29T12:26:43.951Z,8.00
2019-01-29T12:27:52.578Z,8.23
2019-01-29T12:29:00.545Z,6.90
2019-01-29T12:30:23.796Z,8.13
2019-01-29T12:31:31.867Z,7.73
2019-01-29T12:32:40.219Z,5.50
2019-01-29T12:33:48.629Z,7.50
2019-01-29T12:34:56.809Z,7.67
2019-01-29T12:36:04.540Z,7.40
2019-01-29T12:37:12.966Z,8.23
2019-01-29T12:38:21.954Z,7.87
2019-01-29T12:39:29.806Z,7.07
2019-01-29T12:40:38.098Z,6.40
2019-01-29T12:41:46.752Z,4.77
2019-01-29T12:42:55.119Z,6.67
2019-01-29T12:44:03.331Z,7.63
2019-01-29T12:45:17.137Z,6.67
2019-01-29T12:46:25.407Z,5.40
2019-01-29T12:47:33.207Z,5.87
2019-01-29T12:48:41.160Z,7.13
2019-01-29T12:49:50.699Z,7.33
2019-01-29T12:50:59.251Z,7.70
2019-01-29T12:52:08.419Z,5.77
2019-01-29T12:53:19.250Z,7.57
2019-01-29T12:54:27.394Z,7.00
2019-01-29T12:55:35.583Z,7.07
2019-01-29T12:56:44.070Z,6.57
2019-01-29T12:57:52.756Z,6.07
2019-01-29T12:59:01.062Z,6.00
2019-01-29T13:00:18.635Z,5.97
2019-01-29T13:01:26.887Z,5.77
2019-01-29T13:02:35.097Z,6.57
2019-01-29T13:03:43.322Z,6.67
2019-01-29T13:04:51.315Z,5.57
2019-01-29T13:05:59.696Z,4.23
2019-01-29T13:07:07.587Z,5.03
2019-01-29T13:08:17.007Z,5.70
2019-01-29T13:09:25.622Z,5.87
2019-01-29T13:10:34.128Z,7.20
2019-01-29T13:11:42.329Z,6.70
2019-01-29T13:12:51.159Z,7.40
2019-01-29T13:14:00.046Z,5.70
2019-01-29T13:15:15.754Z,5.57
2019-01-29T13:16:24.412Z,7.40
2019-01-29T13:17:32.533Z,5.97
2019-01-29T13:18:40.875Z,5.80
2019-01-29T13:19:49.139Z,5.13
2019-01-29T13:20:58.454Z,4.77
2019-01-29T13:22:07.351Z,5.90
2019-01-29T13:23:15.843Z,5.97
2019-01-29T13:24:24.397Z,5.17
2019-01-29T13:25:32.473Z,4.97
2019-01-29T13:26:41.031Z,5.60
2019-01-29T13:27:49.162Z,4.47
2019-01-29T13:28:56.948Z,6.87
2019-01-29T13:30:08.214Z,7.03
2019-01-29T13:31:16.506Z,6.07
2019-01-29T13:32:24.768Z,5.40
2019-01-29T13:33:34.344Z,6.20
2019-01-29T13:34:42.584Z,5.00
2019-01-29T13:35:50.617Z,6.67
2019-01-29T13:36:59.149Z,5.70
2019-01-29T13:38:09.609Z,5.30
2019-01-29T13:39:18.174Z,6.67
2019-01-29T13:40:27.009Z,6.13
2019-01-29T13:41:35.317Z,4.37
2019-01-29T13:42:44.135Z,5.63
2019-01-29T13:43:53.311Z,5.17
2019-01-29T13:45:01.318Z,6.17
2019-01-29T13:46:09.651Z,5.40
2019-01-29T13:47:18.242Z,5.10
2019-01-29T13:48:27.550Z,6.57
2019-01-29T13:49:36.108Z,5.73
2019-01-29T13:50:48.976Z,6.47
2019-01-29T13:51:58.121Z,5.17
2019-01-29T13:53:07.104Z,5.90
2019-01-29T13:54:15.390Z,6.03
2019-01-29T13:55:23.717Z,6.60
2019-01-29T13:56:38.709Z,5.43
2019-01-29T13:57:42.205Z,6.83
2019-01-29T13:58:50.649Z,5.73
2019-01-29T13:59:58.840Z,6.00
2019-01-29T14:01:07.156Z,4.93
2019-01-29T14:02:15.040Z,5.40
2019-01-29T14:03:23.128Z,6.67
2019-01-29T14:04:31.188Z,6.10
2019-01-29T14:05:39.374Z,5.60
2019-01-29T14:06:47.263Z,7.33
2019-01-29T14:07:55.478Z,6.20
2019-01-29T14:09:03.560Z,7.40
2019-01-29T14:10:14.938Z,6.33
2019-01-29T14:11:23.216Z,6.83
2019-01-29T14:12:31.607Z,6.80
2019-01-29T14:13:41.079Z,6.93
2019-01-29T14:14:49.420Z,5.90
2019-01-29T14:15:58.711Z,6.27
2019-01-29T14:17:07.787Z,6.10
2019-01-29T14:18:17.242Z,7.40
2019-01-29T14:19:25.315Z,7.57
2019-01-29T14:20:34.246Z,7.27
2019-01-29T14:21:42.451Z,5.63
2019-01-29T14:22:50.878Z,7.43
2019-01-29T14:23:59.130Z,5.97
2019-01-29T14:25:11.309Z,6.13
2019-01-29T14:26:23.727Z,7.70
2019-01-29T14:27:32.141Z,8.37
2019-01-29T14:28:40.578Z,6.50
2019-01-29T14:29:49.854Z,6.30
2019-01-29T14:30:58.466Z,7.67
2019-01-29T14:32:07.836Z,9.50
2019-01-29T14:33:16.174Z,7.03
2019-01-29T14:34:24.377Z,7.80
2019-01-29T14:35:32.797Z,8.23
2019-01-29T14:36:40.811Z,7.90
2019-01-29T14:38:02.493Z,7.60
2019-01-29T14:39:19.268Z,7.13
2019-01-29T14:40:27.553Z,7.77
2019-01-29T14:41:35.946Z,7.47
2019-01-29T14:42:46.296Z,7.20
2019-01-29T14:43:54.252Z,7.83
2019-01-29T14:45:02.236Z,7.10
2019-01-29T14:46:10.615Z,8.70
2019-01-29T14:47:20.893Z,8.20
2019-01-29T14:48:29.500Z,6.37
2019-01-29T14:49:37.927Z,9.43
2019-01-29T14:50:45.969Z,7.93
2019-01-29T14:51:54.558Z,6.50
2019-01-29T14:53:02.772Z,7.20
2019-01-29T14:54:10.930Z,6.83
2019-01-29T14:55:20.296Z,7.10
2019-01-29T14:56:28.431Z,6.67
2019-01-29T14:57:36.571Z,6.33
2019-01-29T14:58:45.164Z,8.17
2019-01-29T14:59:53.314Z,8.97
2019-01-29T15:01:01.700Z,8.73
2019-01-29T15:02:10.831Z,8.17
2019-01-29T15:03:19.400Z,8.07
2019-01-29T15:04:27.905Z,9.30
2019-01-29T15:05:35.743Z,7.33
2019-01-29T15:06:44.261Z,6.67